| time (UTC) | temp F | wind direction | speed knots | gust knots | rain 1hr in | rain 24hr in | rain mn in | humidity % | barometer mb |
| 20260507192828 | 53 | 0.9 | 1.7 | 0.00 | 0.00 | 0.00 | 71 | 1016.3 | |
| 20260507192319 | 54 | 0.0 | 0.9 | 0.00 | 0.00 | 0.00 | 70 | 1016.3 | |
| 20260507191818 | 54 | 0.0 | 0.0 | 0.00 | 0.00 | 0.00 | 70 | 1016.3 | |
| 20260507191317 | 54 | 0.9 | 3.5 | 0.00 | 0.00 | 0.00 | 70 | 1016.5 | |
| 20260507190816 | 54 | 0.0 | 1.7 | 0.00 | 0.00 | 0.00 | 69 | 1016.3 | |
| 20260507190315 | 54 | 0.0 | 1.7 | 0.00 | 0.00 | 0.00 | 69 | 1016.3 | |
| 20260507185815 | 55 | 0.0 | 0.0 | 0.00 | 0.00 | 0.00 | 69 | 1016.2 | |
| 20260507185314 | 55 | 0.9 | 1.7 | 0.00 | 0.00 | 0.00 | 68 | 1016.3 | |
| 20260507184743 | 55 | 0.0 | 0.9 | 0.00 | 0.00 | 0.00 | 67 | 1016.3 | |
| 20260507184213 | 55 | 0.0 | 3.5 | 0.00 | 0.00 | 0.00 | 67 | 1016.2 | |
| 20260507183642 | 55 | 0.9 | 3.5 | 0.00 | 0.00 | 0.00 | 66 | 1016.3 | |
| 20260507183100 | 56 | 3.5 | 5.2 | 0.00 | 0.00 | 0.00 | 66 | 1016.1 | |
| 20260507182529 | 56 | 1.7 | 2.6 | 0.00 | 0.00 | 0.00 | 66 | 1016.1 | |
| 20260507181958 | 56 | 1.7 | 3.5 | 0.00 | 0.00 | 0.00 | 65 | 1016.1 | |
| 20260507181402 | 56 | 0.9 | 3.5 | 0.00 | 0.00 | 0.00 | 65 | 1016.2 | |
| 20260507180832 | 57 | 1.7 | 4.3 | 0.00 | 0.00 | 0.00 | 64 | 1016.0 | |
| 20260507180325 | 57 | 0.0 | 1.7 | 0.00 | 0.00 | 0.00 | 62 | 1016.1 | |
| 20260507175825 | 57 | 1.7 | 3.5 | 0.00 | 0.00 | 0.00 | 61 | 1015.9 | |
| 20260507175324 | 58 | 0.9 | 2.6 | 0.00 | 0.00 | 0.00 | 60 | 1016.0 | |
| 20260507174824 | 58 | 0.9 | 2.6 | 0.00 | 0.00 | 0.00 | 60 | 1016.1 | |
| 20260507174323 | 58 | 0.0 | 0.9 | 0.00 | 0.00 | 0.00 | 59 | 1016.0 | |
| 20260507173822 | 58 | 1.7 | 4.3 | 0.00 | 0.00 | 0.00 | 58 | 1015.9 | |
| 20260507173321 | 58 | 2.6 | 7.0 | 0.00 | 0.00 | 0.00 | 56 | 1016.0 | |
| 20260507172750 | 58 | 2.6 | 5.2 | 0.00 | 0.00 | 0.00 | 56 | 1016.1 | |
| 20260507172214 | 58 | 2.6 | 5.2 | 0.00 | 0.00 | 0.00 | 56 | 1015.9 | |
| 20260507171629 | 58 | 0.9 | 2.6 | 0.00 | 0.00 | 0.00 | 56 | 1016.0 | |
| 20260507171058 | 58 | 0.0 | 0.9 | 0.00 | 0.00 | 0.00 | 57 | 1016.0 | |
| 20260507170528 | 58 | 1.7 | 3.5 | 0.00 | 0.00 | 0.00 | 56 | 1016.0 | |
| 20260507165942 | 58 | 1.7 | 3.5 | 0.00 | 0.00 | 0.00 | 56 | 1016.1 | |
| 20260507165411 | 58 | 2.6 | 5.2 | 0.00 | 0.00 | 0.00 | 55 | 1016.0 | |
| 20260507164826 | 59 | 0.9 | 2.6 | 0.00 | 0.00 | 0.00 | 54 | 1015.9 | |
| 20260507164325 | 59 | 0.9 | 2.6 | 0.00 | 0.00 | 0.00 | 54 | 1015.8 | |
| 20260507163823 | 59 | 2.6 | 5.2 | 0.00 | 0.00 | 0.00 | 54 | 1015.6 | |
| 20260507163323 | 59 | 2.6 | 4.3 | 0.00 | 0.00 | 0.00 | 54 | 1015.7 | |
| 20260507162823 | 59 | 0.9 | 3.5 | 0.00 | 0.00 | 0.00 | 54 | 1015.8 | |
| 20260507162322 | 59 | 2.6 | 3.5 | 0.00 | 0.00 | 0.00 | 54 | 1015.9 | |
| 20260507161821 | 59 | 0.9 | 1.7 | 0.00 | 0.00 | 0.00 | 54 | 1015.9 | |
| 20260507161321 | 59 | 2.6 | 7.8 | 0.00 | 0.00 | 0.00 | 54 | 1016.0 | |
| 20260507160820 | 60 | 2.6 | 4.3 | 0.00 | 0.00 | 0.00 | 54 | 1015.9 | |
| 20260507160319 | 60 | 3.5 | 7.0 | 0.00 | 0.00 | 0.00 | 53 | 1016.0 | |
| 20260507155834 | 61 | 1.7 | 3.5 | 0.00 | 0.00 | 0.00 | 52 | 1015.8 | |
| 20260507155323 | 62 | 1.7 | 5.2 | 0.00 | 0.00 | 0.00 | 52 | 1016.0 | |
| 20260507154823 | 62 | 1.7 | 6.1 | 0.00 | 0.00 | 0.00 | 53 | 1015.9 | |
| 20260507154321 | 62 | 1.7 | 5.2 | 0.00 | 0.00 | 0.00 | 54 | 1016.0 | |
| 20260507153821 | 61 | 0.9 | 3.5 | 0.00 | 0.00 | 0.00 | 54 | 1016.2 | |
| 20260507153320 | 60 | 3.5 | 6.1 | 0.00 | 0.00 | 0.00 | 56 | 1016.0 | |
| 20260507152819 | 59 | 0.9 | 2.6 | 0.00 | 0.00 | 0.00 | 55 | 1015.8 | |
| 20260507152318 | 58 | 0.9 | 2.6 | 0.00 | 0.00 | 0.00 | 56 | 1016.0 | |
| 20260507151817 | 58 | 1.7 | 4.3 | 0.00 | 0.00 | 0.00 | 56 | 1015.9 | |
| 20260507151316 | 58 | 0.0 | 1.7 | 0.00 | 0.00 | 0.00 | 56 | 1016.0 | |
| 20260507150747 | 58 | 0.9 | 3.5 | 0.00 | 0.00 | 0.00 | 55 | 1015.9 | |
| 20260507150211 | 58 | 1.7 | 1.7 | 0.00 | 0.00 | 0.00 | 55 | 1016.0 | |
| 20260507145640 | 58 | 0.0 | 1.7 | 0.00 | 0.00 | 0.00 | 54 | 1016.1 | |
| 20260507145054 | 59 | 0.9 | 5.2 | 0.00 | 0.00 | 0.00 | 53 | 1016.1 | |
| 20260507144524 | 59 | 0.0 | 0.9 | 0.00 | 0.00 | 0.00 | 53 | 1016.0 | |
| 20260507143952 | 60 | 1.7 | 3.5 | 0.00 | 0.00 | 0.00 | 53 | 1016.0 | |
| 20260507143402 | 60 | 1.7 | 3.5 | 0.00 | 0.00 | 0.00 | 53 | 1015.8 | |
| 20260507142831 | 61 | 0.9 | 1.7 | 0.00 | 0.00 | 0.00 | 52 | 1015.9 | |
| 20260507142326 | 61 | 1.7 | 4.3 | 0.00 | 0.00 | 0.00 | 52 | 1016.0 | |
| 20260507141824 | 61 | 0.9 | 1.7 | 0.00 | 0.00 | 0.00 | 52 | 1016.1 | |
| 20260507141323 | 61 | 1.7 | 3.5 | 0.00 | 0.00 | 0.00 | 53 | 1016.0 | |
| 20260507140822 | 62 | 1.7 | 1.7 | 0.00 | 0.00 | 0.00 | 52 | 1016.2 | |
| 20260507140321 | 62 | 1.7 | 4.3 | 0.00 | 0.00 | 0.00 | 51 | 1016.2 | |
| 20260507135815 | 63 | 1.7 | 3.5 | 0.00 | 0.00 | 0.00 | 47 | 1016.1 | |
| 20260507135315 | 63 | 0.9 | 2.6 | 0.00 | 0.00 | 0.00 | 48 | 1016.3 | |
| 20260507134814 | 63 | 0.9 | 1.7 | 0.00 | 0.00 | 0.00 | 49 | 1016.2 | |
| 20260507134329 | 63 | 0.0 | 0.9 | 0.00 | 0.00 | 0.00 | 49 | 1016.3 | |
| 20260507133823 | 64 | 0.9 | 1.7 | 0.00 | 0.00 | 0.00 | 50 | 1016.4 | |
| 20260507133317 | 64 | 0.0 | 0.9 | 0.00 | 0.00 | 0.00 | 49 | 1016.3 | |
| 20260507132816 | 64 | 0.9 | 1.7 | 0.00 | 0.00 | 0.00 | 49 | 1016.3 | |
| 20260507132316 | 64 | 0.0 | 1.7 | 0.00 | 0.00 | 0.00 | 51 | 1016.2 | |
| 20260507131815 | 63 | 0.0 | 1.7 | 0.00 | 0.00 | 0.00 | 51 | 1016.5 | |
| 20260507131315 | 63 | 0.0 | 0.9 | 0.00 | 0.00 | 0.00 | 52 | 1016.5 | |
| 20260507130815 | 63 | 1.7 | 2.6 | 0.00 | 0.00 | 0.00 | 52 | 1016.5 | |
| 20260507130314 | 63 | 0.9 | 1.7 | 0.00 | 0.00 | 0.00 | 52 | 1016.3 | |
| 20260507125814 | 62 | 1.7 | 4.3 | 0.00 | 0.00 | 0.00 | 53 | 1016.6 | |
| 20260507125328 | 61 | 0.0 | 1.7 | 0.00 | 0.00 | 0.00 | 54 | 1016.4 | |
| 20260507124823 | 61 | 0.0 | 0.9 | 0.00 | 0.00 | 0.00 | 54 | 1016.5 | |
| 20260507124337 | 60 | 0.0 | 0.9 | 0.00 | 0.00 | 0.00 | 55 | 1016.6 | |
| 20260507123826 | 60 | 1.7 | 3.5 | 0.00 | 0.00 | 0.00 | 56 | 1016.6 | |
| 20260507123326 | 60 | 0.0 | 0.0 | 0.00 | 0.00 | 0.00 | 56 | 1016.6 | |
| 20260507122825 | 60 | 0.9 | 3.5 | 0.00 | 0.00 | 0.00 | 57 | 1016.7 | |
| 20260507122324 | 59 | 0.0 | 0.0 | 0.00 | 0.00 | 0.00 | 57 | 1016.7 | |
| 20260507121823 | 59 | 0.0 | 1.7 | 0.00 | 0.00 | 0.00 | 57 | 1016.7 | |
| 20260507121318 | 59 | 1.7 | 3.5 | 0.00 | 0.00 | 0.00 | 57 | 1016.8 | |
| 20260507120817 | 58 | 0.0 | 0.0 | 0.00 | 0.00 | 0.00 | 59 | 1016.9 | |
| 20260507120316 | 58 | 0.9 | 1.7 | 0.00 | 0.00 | 0.00 | 60 | 1016.7 | |
| 20260507115831 | 58 | 0.9 | 1.7 | 0.00 | 0.00 | 0.00 | 60 | 1016.8 | |
| 20260507115323 | 57 | 0.0 | 0.0 | 0.00 | 0.00 | 0.00 | 61 | 1016.7 | |
| 20260507114820 | 57 | 0.0 | 0.9 | 0.00 | 0.00 | 0.00 | 60 | 1016.7 | |
| 20260507114332 | 57 | 0.0 | 0.0 | 0.00 | 0.00 | 0.00 | 62 | 1016.7 | |
| 20260507113822 | 57 | 0.0 | 0.9 | 0.00 | 0.00 | 0.00 | 63 | 1016.7 | |
| 20260507113321 | 57 | 0.0 | 1.7 | 0.00 | 0.00 | 0.00 | 64 | 1016.7 | |
| 20260507112744 | 56 | 0.0 | 0.9 | 0.00 | 0.00 | 0.00 | 65 | 1016.7 | |
| 20260507112208 | 56 | 0.0 | 0.0 | 0.00 | 0.00 | 0.00 | 65 | 1016.7 | |
| 20260507111637 | 56 | 0.9 | 1.7 | 0.00 | 0.00 | 0.00 | 65 | 1016.8 | |
| 20260507111052 | 56 | 0.9 | 2.6 | 0.00 | 0.00 | 0.00 | 65 | 1016.8 | |
| 20260507110521 | 56 | 0.0 | 0.0 | 0.00 | 0.00 | 0.00 | 65 | 1016.8 | |
| 20260507105950 | 56 | 0.0 | 0.0 | 0.00 | 0.00 | 0.00 | 65 | 1017.0 | |
| 20260507105418 | 56 | 0.0 | 0.0 | 0.00 | 0.00 | 0.00 | 65 | 1017.0 | |
| 20260507104828 | 56 | 0.0 | 0.9 | 0.00 | 0.00 | 0.00 | 65 | 1017.0 | |
| 20260507104328 | 56 | 0.0 | 0.0 | 0.00 | 0.00 | 0.00 | 65 | 1016.9 | |
| 20260507103827 | 56 | 0.0 | 0.9 | 0.00 | 0.00 | 0.00 | 64 | 1017.0 | |
| 20260507103326 | 0 | 0.0 | 0.0 | 0.00 | 0.00 | 0.00 | 1017.0 | ||
| 20260507102826 | 0 | 0.0 | 0.0 | 0.00 | 0.00 | 0.00 | 1016.9 | ||
| 20260507102325 | 0 | 0.0 | 0.0 | 0.00 | 0.00 | 0.00 | 1017.1 | ||
| 20260507101825 | 0 | 0.0 | 0.0 | 0.00 | 0.00 | 0.00 | 1017.0 | ||
| 20260507101324 | 0 | 0.0 | 0.0 | 0.00 | 0.00 | 0.00 | 1016.9 | ||
| 20260507100823 | 0 | 0.0 | 0.0 | 0.00 | 0.00 | 0.00 | 1016.9 | ||
| 20260507100323 | 0 | 0.0 | 0.0 | 0.00 | 0.00 | 0.00 | 1017.0 | ||
| 20260507095823 | 0 | 0.0 | 0.0 | 0.00 | 0.00 | 0.00 | 1017.1 | ||
| 20260507095321 | 0 | 0.0 | 0.0 | 0.00 | 0.00 | 0.00 | 1017.0 | ||
| 20260507094820 | 0 | 0.0 | 0.0 | 0.00 | 0.00 | 0.00 | 1016.9 | ||
| 20260507094250 | 0 | 0.0 | 0.0 | 0.00 | 0.00 | 0.00 | 1016.9 | ||
| 20260507093705 | 0 | 0.0 | 0.0 | 0.00 | 0.00 | 0.00 | 1017.1 | ||
| 20260507092905 | 0 | 0.0 | 0.0 | 0.00 | 0.00 | 0.00 | 1017.0 | ||
| 20260507092334 | 0 | 0.0 | 0.0 | 0.00 | 0.00 | 0.00 | 1017.0 | ||
| 20260507091827 | 0 | 0.0 | 0.0 | 0.00 | 0.00 | 0.00 | 1017.0 | ||
| 20260507091327 | 0 | 0.0 | 0.0 | 0.00 | 0.00 | 0.00 | 1017.1 | ||
| 20260507090824 | 0 | 0.0 | 0.0 | 0.00 | 0.00 | 0.00 | 1017.1 | ||
| 20260507090324 | 0 | 0.0 | 0.0 | 0.00 | 0.00 | 0.00 | 1017.1 | ||
| 20260507085823 | 0 | 0.0 | 0.0 | 0.00 | 0.00 | 0.00 | 1017.3 | ||
| 20260507085323 | 0 | 0.0 | 0.0 | 0.00 | 0.00 | 0.00 | 1017.0 | ||
| 20260507084822 | 0 | 0.0 | 0.0 | 0.00 | 0.00 | 0.00 | 1017.1 | ||
| 20260507084322 | 0 | 0.0 | 0.0 | 0.00 | 0.00 | 0.00 | 1017.0 | ||
| 20260507083828 | 0 | 0.0 | 0.0 | 0.00 | 0.00 | 0.00 | 1016.9 | ||
| 20260507083313 | 0 | 0.0 | 0.0 | 0.00 | 0.00 | 0.00 | 1016.9 | ||
| 20260507082742 | 0 | 0.0 | 0.0 | 0.00 | 0.00 | 0.00 | 1016.7 | ||
| 20260507082159 | 0 | 0.0 | 0.0 | 0.00 | 0.00 | 0.00 | 1016.9 | ||
| 20260507081628 | 0 | 0.0 | 0.0 | 0.00 | 0.00 | 0.00 | 1016.9 | ||
| 20260507081042 | 0 | 0.0 | 0.0 | 0.00 | 0.00 | 0.00 | 1016.9 | ||
| 20260507080326 | 0 | 0.0 | 0.0 | 0.00 | 0.00 | 0.00 | 1017.0 | ||
| 20260507075758 | 0 | 0.0 | 0.0 | 0.00 | 0.00 | 0.00 | 1016.9 | ||
| 20260507075223 | 0 | 0.0 | 0.0 | 0.00 | 0.00 | 0.00 | 1016.8 | ||
| 20260507074651 | 0 | 0.0 | 0.0 | 0.00 | 0.00 | 0.00 | 1017.0 | ||
| 20260507074102 | 0 | 0.0 | 0.0 | 0.00 | 0.00 | 0.00 | 1016.8 | ||
| 20260507073447 | 0 | 0.0 | 0.0 | 0.00 | 0.00 | 0.00 | 1016.8 | ||
| 20260507072910 | 0 | 0.0 | 0.0 | 0.00 | 0.00 | 0.00 | 1016.8 | ||
| 20260507072324 | 0 | 0.0 | 0.0 | 0.00 | 0.00 | 0.00 | 1016.9 | ||
| 20260507071824 | 0 | 0.0 | 0.0 | 0.00 | 0.00 | 0.00 | 1016.9 | ||
| 20260507071323 | 49 | 0.0 | 0.0 | 0.00 | 0.00 | 0.00 | 96 | 1016.7 | |
| 20260507070822 | 49 | 0.0 | 0.0 | 0.00 | 0.00 | 0.00 | 96 | 1016.8 | |
| 20260507070236 | 49 | 0.0 | 0.0 | 0.00 | 0.00 | 0.00 | 96 | 1016.8 | |
| 20260507065706 | 48 | 0.0 | 0.0 | 0.00 | 0.00 | 0.00 | 96 | 1016.7 | |
| 20260507065129 | 47 | 0.0 | 0.0 | 0.00 | 0.00 | 0.00 | 97 | 1016.8 | |
| 20260507064559 | 47 | 0.0 | 0.0 | 0.00 | 0.00 | 0.00 | 97 | 1016.7 | |
| 20260507064028 | 46 | 0.0 | 0.0 | 0.00 | 0.00 | 0.00 | 97 | 1016.7 | |
| 20260507063442 | 46 | 0.0 | 0.0 | 0.00 | 0.00 | 0.00 | 97 | 1016.6 | |
| 20260507062912 | 45 | 0.0 | 0.0 | 0.00 | 0.00 | 0.00 | 97 | 1016.5 | |
| 20260507062326 | 44 | 0.0 | 0.0 | 0.00 | 0.00 | 0.00 | 97 | 1016.6 | |
| 20260507061826 | 44 | 0.0 | 0.0 | 0.00 | 0.00 | 0.00 | 98 | 1016.4 | |
| 20260507061319 | 44 | 0.0 | 0.0 | 0.00 | 0.00 | 0.00 | 97 | 1016.3 | |
| 20260507060818 | 44 | 0.0 | 0.0 | 0.00 | 0.00 | 0.00 | 97 | 1016.3 | |
| 20260507060332 | 43 | 0.0 | 0.0 | 0.00 | 0.00 | 0.00 | 97 | 1016.2 | |
| 20260507055821 | 43 | 0.0 | 0.0 | 0.00 | 0.00 | 0.00 | 97 | 1016.4 | |
| 20260507055321 | 43 | 0.0 | 0.0 | 0.00 | 0.00 | 0.00 | 97 | 1016.3 | |
| 20260507054821 | 43 | 0.0 | 0.0 | 0.00 | 0.00 | 0.00 | 96 | 1016.1 | |
| 20260507054315 | 43 | 0.0 | 0.0 | 0.00 | 0.00 | 0.00 | 96 | 1016.3 | |
| 20260507053814 | 43 | 0.0 | 0.0 | 0.00 | 0.00 | 0.00 | 96 | 1016.1 | |
| 20260507053314 | 43 | 0.0 | 0.0 | 0.00 | 0.00 | 0.00 | 96 | 1016.2 | |
| 20260507052828 | 43 | 0.0 | 0.0 | 0.00 | 0.00 | 0.00 | 96 | 1016.2 | |
| 20260507052323 | 43 | 0.0 | 0.0 | 0.00 | 0.00 | 0.00 | 96 | 1016.2 | |
| 20260507051822 | 43 | 0.0 | 0.0 | 0.00 | 0.00 | 0.00 | 96 | 1016.0 | |
| 20260507051322 | 43 | 0.0 | 0.0 | 0.00 | 0.00 | 0.00 | 96 | 1016.0 | |
| 20260507050816 | 44 | 0.0 | 0.0 | 0.00 | 0.00 | 0.00 | 96 | 1016.1 | |
| 20260507050316 | 44 | 0.0 | 0.0 | 0.00 | 0.00 | 0.00 | 96 | 1016.1 | |
| 20260507045816 | 44 | 0.0 | 0.0 | 0.00 | 0.00 | 0.00 | 96 | 1016.1 | |
| 20260507045300 | 44 | 0.0 | 0.0 | 0.00 | 0.00 | 0.00 | 96 | 1016.2 | |
| 20260507044730 | 43 | 0.0 | 0.0 | 0.00 | 0.00 | 0.00 | 96 | 1016.0 | |
| 20260507044159 | 43 | 0.0 | 0.0 | 0.00 | 0.00 | 0.00 | 95 | 1016.0 | |
| 20260507043528 | 43 | 0.0 | 0.0 | 0.00 | 0.00 | 0.00 | 95 | 1015.9 | |
| 20260507042958 | 43 | 0.0 | 0.0 | 0.00 | 0.00 | 0.00 | 94 | 1016.0 | |
| 20260507042328 | 42 | 0.0 | 0.0 | 0.00 | 0.00 | 0.00 | 94 | 1015.9 | |
| 20260507041827 | 43 | 0.0 | 0.0 | 0.00 | 0.00 | 0.00 | 94 | 1016.1 | |
| 20260507041327 | 43 | 0.0 | 0.0 | 0.00 | 0.00 | 0.00 | 94 | 1015.9 | |
| 20260507040826 | 43 | 0.0 | 0.0 | 0.00 | 0.00 | 0.00 | 94 | 1015.9 | |
| 20260507040316 | 43 | 0.0 | 0.0 | 0.00 | 0.00 | 0.00 | 94 | 1015.7 | |
| 20260507035815 | 43 | 0.0 | 0.0 | 0.00 | 0.00 | 0.00 | 93 | 1015.8 | |
| 20260507035315 | 43 | 0.0 | 0.0 | 0.00 | 0.00 | 0.00 | 93 | 1016.0 | |
| 20260507034815 | 43 | 0.0 | 0.0 | 0.00 | 0.00 | 0.00 | 93 | 1016.0 | |
| 20260507034314 | 43 | 0.0 | 0.0 | 0.00 | 0.00 | 0.00 | 93 | 1015.8 | |
| 20260507033829 | 43 | 0.0 | 0.0 | 0.00 | 0.00 | 0.00 | 92 | 1016.0 | |
| 20260507033324 | 44 | 0.0 | 0.0 | 0.00 | 0.00 | 0.00 | 92 | 1015.7 | |
| 20260507032823 | 44 | 0.0 | 0.0 | 0.00 | 0.00 | 0.00 | 92 | 1015.7 | |
| 20260507032323 | 44 | 0.0 | 0.0 | 0.00 | 0.00 | 0.00 | 92 | 1015.8 | |
| 20260507031823 | 44 | 0.0 | 0.0 | 0.00 | 0.00 | 0.00 | 91 | 1015.9 | |
| 20260507031322 | 45 | 0.0 | 0.0 | 0.00 | 0.00 | 0.00 | 91 | 1015.6 | |
| 20260507030822 | 45 | 0.0 | 0.0 | 0.00 | 0.00 | 0.00 | 91 | 1015.8 | |
| 20260507030321 | 45 | 0.0 | 0.0 | 0.00 | 0.00 | 0.00 | 91 | 1015.7 | |
| 20260507025820 | 46 | 0.0 | 0.0 | 0.00 | 0.00 | 0.00 | 91 | 1015.7 | |
| 20260507025220 | 46 | 0.0 | 0.0 | 0.00 | 0.00 | 0.00 | 91 | 1015.8 | |
| 20260507024604 | 46 | 0.0 | 0.9 | 0.00 | 0.00 | 0.00 | 91 | 1015.8 | |
| 20260507024014 | 46 | 0.0 | 0.0 | 0.00 | 0.00 | 0.00 | 90 | 1015.6 | |
| 20260507023444 | 46 | 0.0 | 0.0 | 0.00 | 0.00 | 0.00 | 90 | 1015.8 | |
| 20260507022913 | 46 | 0.0 | 0.9 | 0.00 | 0.00 | 0.00 | 90 | 1015.6 | |
| 20260507022328 | 46 | 0.0 | 0.0 | 0.00 | 0.00 | 0.00 | 90 | 1015.7 | |
| 20260507021827 | 46 | 0.0 | 0.9 | 0.00 | 0.00 | 0.00 | 90 | 1015.7 | |
| 20260507021326 | 46 | 0.0 | 0.9 | 0.00 | 0.00 | 0.00 | 90 | 1015.7 | |
| 20260507020816 | 47 | 0.0 | 0.0 | 0.00 | 0.00 | 0.00 | 90 | 1015.7 | |
| 20260507020246 | 47 | 0.0 | 0.9 | 0.00 | 0.00 | 0.00 | 90 | 1015.6 | |
| 20260507015700 | 47 | 0.0 | 0.9 | 0.00 | 0.00 | 0.00 | 90 | 1015.7 | |
| 20260507015129 | 46 | 0.0 | 1.7 | 0.00 | 0.00 | 0.00 | 90 | 1015.6 | |
| 20260507014559 | 46 | 0.0 | 1.7 | 0.00 | 0.00 | 0.00 | 90 | 1015.7 | |
| 20260507014027 | 46 | 0.0 | 0.9 | 0.00 | 0.00 | 0.00 | 91 | 1015.6 | |
| 20260507013442 | 45 | 0.0 | 0.0 | 0.00 | 0.00 | 0.00 | 90 | 1015.5 | |
| 20260507012910 | 45 | 0.0 | 0.9 | 0.00 | 0.00 | 0.00 | 89 | 1015.6 | |
| 20260507012325 | 45 | 0.0 | 0.0 | 0.00 | 0.00 | 0.00 | 88 | 1015.5 | |
| 20260507011824 | 45 | 0.0 | 0.0 | 0.00 | 0.00 | 0.00 | 87 | 1015.4 | |
| 20260507011339 | 45 | 0.0 | 0.0 | 0.00 | 0.00 | 0.00 | 87 | 1015.5 | |
| 20260507010823 | 45 | 0.0 | 0.9 | 0.00 | 0.00 | 0.00 | 86 | 1015.6 | |
| 20260507010322 | 45 | 0.0 | 0.0 | 0.00 | 0.00 | 0.00 | 86 | 1015.6 | |
| 20260507005822 | 46 | 0.0 | 0.0 | 0.00 | 0.00 | 0.00 | 85 | 1015.5 | |
| 20260507005322 | 46 | 0.0 | 0.0 | 0.00 | 0.00 | 0.00 | 85 | 1015.6 | |
| 20260507004821 | 46 | 0.0 | 0.0 | 0.00 | 0.00 | 0.00 | 85 | 1015.5 | |
| 20260507004321 | 46 | 0.0 | 0.0 | 0.00 | 0.00 | 0.00 | 85 | 1015.4 | |
| 20260507003820 | 47 | 0.0 | 0.0 | 0.00 | 0.00 | 0.00 | 85 | 1015.6 | |
| 20260507003321 | 47 | 0.0 | 0.0 | 0.00 | 0.00 | 0.00 | 85 | 1015.6 | |
| 20260507002549 | 47 | 0.0 | 0.9 | 0.00 | 0.00 | 0.00 | 84 | 1015.7 | |
| 20260507002019 | 47 | 0.0 | 0.0 | 0.00 | 0.00 | 0.00 | 83 | 1015.6 | |
| 20260507001448 | 48 | 0.0 | 0.0 | 0.00 | 0.00 | 0.00 | 83 | 1015.4 | |
| 20260507000912 | 48 | 0.0 | 0.0 | 0.00 | 0.00 | 0.00 | 81 | 1015.6 | |
| 20260507000328 | 48 | 0.0 | 0.0 | 0.00 | 0.00 | 0.00 | 80 | 1015.8 | |
| 20260506235827 | 48 | 0.0 | 0.0 | 0.00 | 0.00 | 0.00 | 80 | 1015.6 | |
| 20260506235326 | 49 | 0.0 | 0.0 | 0.00 | 0.00 | 0.00 | 79 | 1015.7 | |
| 20260506234826 | 49 | 0.0 | 0.0 | 0.00 | 0.00 | 0.00 | 79 | 1015.6 | |
| 20260506234241 | 49 | 0.0 | 0.9 | 0.00 | 0.00 | 0.00 | 79 | 1015.4 | |
| 20260506233705 | 49 | 0.0 | 0.0 | 0.00 | 0.00 | 0.00 | 78 | 1015.5 | |
| 20260506233135 | 49 | 0.0 | 0.0 | 0.00 | 0.00 | 0.00 | 78 | 1015.4 | |
| 20260506232559 | 49 | 0.0 | 1.7 | 0.00 | 0.00 | 0.00 | 77 | 1015.4 | |
| 20260506232024 | 49 | 0.0 | 0.0 | 0.00 | 0.00 | 0.00 | 77 | 1015.5 | |
| 20260506231438 | 49 | 0.0 | 0.9 | 0.00 | 0.00 | 0.00 | 77 | 1015.4 | |
| 20260506230908 | 49 | 0.0 | 1.7 | 0.00 | 0.00 | 0.00 | 76 | 1015.4 | |
| 20260506230323 | 50 | 0.9 | 1.7 | 0.00 | 0.00 | 0.00 | 75 | 1015.6 | |
| 20260506225823 | 50 | 0.0 | 0.9 | 0.00 | 0.00 | 0.00 | 74 | 1015.4 | |
| 20260506225322 | 50 | 0.0 | 1.7 | 0.00 | 0.00 | 0.00 | 74 | 1015.5 | |
| 20260506224821 | 50 | 0.9 | 1.7 | 0.00 | 0.00 | 0.00 | 74 | 1015.7 | |
| 20260506224315 | 50 | 0.0 | 0.9 | 0.00 | 0.00 | 0.00 | 73 | 1015.4 | |
| 20260506223815 | 50 | 0.0 | 0.9 | 0.00 | 0.00 | 0.00 | 73 | 1015.4 | |
| 20260506223314 | 50 | 1.7 | 3.5 | 0.00 | 0.00 | 0.00 | 72 | 1015.4 | |
| 20260506222814 | 50 | 0.0 | 0.9 | 0.00 | 0.00 | 0.00 | 72 | 1015.5 | |
| 20260506222313 | 50 | 0.0 | 1.7 | 0.00 | 0.00 | 0.00 | 71 | 1015.5 | |
| 20260506221813 | 50 | 0.0 | 1.7 | 0.00 | 0.00 | 0.00 | 71 | 1015.4 | |
| 20260506221313 | 50 | 0.0 | 0.9 | 0.00 | 0.00 | 0.00 | 70 | 1015.5 | |
| 20260506220813 | 50 | 0.0 | 0.0 | 0.00 | 0.00 | 0.00 | 70 | 1015.3 | |
| 20260506220242 | 50 | 0.0 | 1.7 | 0.00 | 0.00 | 0.00 | 69 | 1015.4 | |
| 20260506215712 | 50 | 0.0 | 1.7 | 0.00 | 0.00 | 0.00 | 69 | 1015.4 | |
| 20260506215126 | 51 | 0.0 | 1.7 | 0.00 | 0.00 | 0.00 | 68 | 1015.3 | |
| 20260506214555 | 51 | 0.0 | 1.7 | 0.00 | 0.00 | 0.00 | 68 | 1015.3 | |
| 20260506214025 | 51 | 0.9 | 1.7 | 0.00 | 0.00 | 0.00 | 68 | 1015.2 | |
| 20260506213440 | 51 | 0.9 | 2.6 | 0.00 | 0.00 | 0.00 | 67 | 1015.2 | |
| 20260506212909 | 51 | 0.0 | 1.7 | 0.00 | 0.00 | 0.00 | 67 | 1015.3 | |
| 20260506212322 | 51 | 1.7 | 3.5 | 0.00 | 0.00 | 0.00 | 67 | 1015.3 | |
| 20260506211822 | 51 | 2.6 | 4.3 | 0.00 | 0.00 | 0.00 | 67 | 1015.5 | |
| 20260506211322 | 51 | 0.0 | 0.9 | 0.00 | 0.00 | 0.00 | 66 | 1015.1 | |
| 20260506210831 | 51 | 0.9 | 1.7 | 0.00 | 0.00 | 0.00 | 66 | 1015.2 | |
| 20260506210239 | 51 | 0.9 | 1.7 | 0.00 | 0.00 | 0.00 | 65 | 1015.1 | |
| 20260506205708 | 51 | 1.7 | 2.6 | 0.00 | 0.00 | 0.00 | 65 | 1015.3 | |
| 20260506205136 | 51 | 1.7 | 2.6 | 0.00 | 0.00 | 0.00 | 65 | 1015.1 | |
| 20260506204550 | 52 | 0.0 | 1.7 | 0.00 | 0.00 | 0.00 | 64 | 1015.2 | |
| 20260506204019 | 52 | 2.6 | 5.2 | 0.00 | 0.00 | 0.00 | 64 | 1015.1 | |
| 20260506203448 | 52 | 1.7 | 3.5 | 0.00 | 0.00 | 0.00 | 64 | 1015.1 | |
| 20260506202918 | 52 | 1.7 | 5.2 | 0.00 | 0.00 | 0.00 | 63 | 1015.1 | |
| 20260506202327 | 52 | 0.9 | 3.5 | 0.00 | 0.00 | 0.00 | 63 | 1015.0 | |
| 20260506201826 | 52 | 0.9 | 2.6 | 0.00 | 0.00 | 0.00 | 63 | 1014.7 | |
| 20260506201325 | 52 | 1.7 | 3.5 | 0.00 | 0.00 | 0.00 | 62 | 1014.8 | |
| 20260506200824 | 52 | 0.0 | 0.9 | 0.00 | 0.00 | 0.00 | 62 | 1014.8 | |
| 20260506200248 | 52 | 1.7 | 2.6 | 0.00 | 0.00 | 0.00 | 62 | 1014.9 | |
| 20260506195703 | 52 | 1.7 | 3.5 | 0.00 | 0.00 | 0.00 | 62 | 1014.6 | |
| 20260506195132 | 52 | 0.9 | 3.5 | 0.00 | 0.00 | 0.00 | 62 | 1014.6 | |
| 20260506194546 | 52 | 0.0 | 1.7 | 0.00 | 0.00 | 0.00 | 62 | 1014.4 | |
| 20260506194016 | 53 | 0.9 | 1.7 | 0.00 | 0.00 | 0.00 | 62 | 1014.6 | |
| 20260506193446 | 53 | 1.7 | 4.3 | 0.00 | 0.00 | 0.00 | 62 | 1014.4 |